sensor_id;sensor_type;location;lat;lon;timestamp;temperature;humidity
28530;DHT22;15737;49.760;6.632;2024-01-16T00:01:30;0.10;99.90
28530;DHT22;15737;49.760;6.632;2024-01-16T00:03:56;0.10;99.90
28530;DHT22;15737;49.760;6.632;2024-01-16T00:06:21;0.10;99.90
28530;DHT22;15737;49.760;6.632;2024-01-16T00:08:47;0.10;99.90
28530;DHT22;15737;49.760;6.632;2024-01-16T00:11:12;0.20;99.90
28530;DHT22;15737;49.760;6.632;2024-01-16T00:13:38;0.20;99.90
28530;DHT22;15737;49.760;6.632;2024-01-16T00:16:04;0.20;99.90
28530;DHT22;15737;49.760;6.632;2024-01-16T00:18:29;0.20;99.90
28530;DHT22;15737;49.760;6.632;2024-01-16T00:20:55;0.10;99.90
28530;DHT22;15737;49.760;6.632;2024-01-16T00:23:20;0.10;99.90
28530;DHT22;15737;49.760;6.632;2024-01-16T00:25:46;0.10;99.90
28530;DHT22;15737;49.760;6.632;2024-01-16T00:28:11;0.10;99.90
28530;DHT22;15737;49.760;6.632;2024-01-16T00:30:37;0.00;99.90
28530;DHT22;15737;49.760;6.632;2024-01-16T00:33:02;-0.10;99.90
28530;DHT22;15737;49.760;6.632;2024-01-16T00:35:28;-0.20;99.90
28530;DHT22;15737;49.760;6.632;2024-01-16T00:37:53;-0.20;99.90
28530;DHT22;15737;49.760;6.632;2024-01-16T00:40:19;-0.30;99.90
28530;DHT22;15737;49.760;6.632;2024-01-16T00:42:44;-0.30;99.90
28530;DHT22;15737;49.760;6.632;2024-01-16T00:45:10;-0.30;99.90
28530;DHT22;15737;49.760;6.632;2024-01-16T00:47:36;-0.30;99.90
28530;DHT22;15737;49.760;6.632;2024-01-16T00:50:01;-0.30;99.90
28530;DHT22;15737;49.760;6.632;2024-01-16T00:52:27;-0.20;99.90
28530;DHT22;15737;49.760;6.632;2024-01-16T00:54:53;-0.20;99.90
28530;DHT22;15737;49.760;6.632;2024-01-16T00:57:18;-0.10;99.90
28530;DHT22;15737;49.760;6.632;2024-01-16T00:59:47;-0.10;99.90
28530;DHT22;15737;49.760;6.632;2024-01-16T01:02:12;-0.10;99.90
28530;DHT22;15737;49.760;6.632;2024-01-16T01:04:38;-0.10;99.90
28530;DHT22;15737;49.760;6.632;2024-01-16T01:07:04;-0.10;99.90
28530;DHT22;15737;49.760;6.632;2024-01-16T01:09:32;-0.10;99.90
28530;DHT22;15737;49.760;6.632;2024-01-16T01:11:57;-0.10;99.90
28530;DHT22;15737;49.760;6.632;2024-01-16T01:14:23;-0.10;99.90
28530;DHT22;15737;49.760;6.632;2024-01-16T01:16:48;-0.20;99.90
28530;DHT22;15737;49.760;6.632;2024-01-16T01:19:14;-0.20;99.90
28530;DHT22;15737;49.760;6.632;2024-01-16T01:21:39;-0.30;99.90
28530;DHT22;15737;49.760;6.632;2024-01-16T01:24:05;-0.30;99.90
28530;DHT22;15737;49.760;6.632;2024-01-16T01:26:31;-0.30;99.90
28530;DHT22;15737;49.760;6.632;2024-01-16T01:28:56;-0.30;99.90
28530;DHT22;15737;49.760;6.632;2024-01-16T01:31:22;-0.40;99.90
28530;DHT22;15737;49.760;6.632;2024-01-16T01:33:48;-0.40;99.90
28530;DHT22;15737;49.760;6.632;2024-01-16T01:36:13;-0.40;99.90
28530;DHT22;15737;49.760;6.632;2024-01-16T01:38:39;-0.40;99.90
28530;DHT22;15737;49.760;6.632;2024-01-16T01:41:04;-0.40;99.90
28530;DHT22;15737;49.760;6.632;2024-01-16T01:43:30;-0.40;99.90
28530;DHT22;15737;49.760;6.632;2024-01-16T01:46:16;-0.30;99.90
28530;DHT22;15737;49.760;6.632;2024-01-16T01:48:43;-0.30;99.90
28530;DHT22;15737;49.760;6.632;2024-01-16T01:51:10;-0.30;99.90
28530;DHT22;15737;49.760;6.632;2024-01-16T01:53:36;-0.30;99.90
28530;DHT22;15737;49.760;6.632;2024-01-16T01:56:04;-0.30;99.90
28530;DHT22;15737;49.760;6.632;2024-01-16T01:58:32;-0.40;99.90
28530;DHT22;15737;49.760;6.632;2024-01-16T02:00:59;-0.40;99.90
28530;DHT22;15737;49.760;6.632;2024-01-16T02:03:27;-0.40;99.90
28530;DHT22;15737;49.760;6.632;2024-01-16T02:05:55;-0.50;99.90
28530;DHT22;15737;49.760;6.632;2024-01-16T02:08:22;-0.40;99.90
28530;DHT22;15737;49.760;6.632;2024-01-16T02:10:49;-0.40;99.90
28530;DHT22;15737;49.760;6.632;2024-01-16T02:13:15;-0.40;99.90
28530;DHT22;15737;49.760;6.632;2024-01-16T02:15:41;-0.30;99.90
28530;DHT22;15737;49.760;6.632;2024-01-16T02:18:07;-0.30;99.90
28530;DHT22;15737;49.760;6.632;2024-01-16T02:20:32;-0.30;99.90
28530;DHT22;15737;49.760;6.632;2024-01-16T02:23:00;-0.30;99.90
28530;DHT22;15737;49.760;6.632;2024-01-16T02:25:27;-0.30;99.90
28530;DHT22;15737;49.760;6.632;2024-01-16T02:27:52;-0.30;99.90
28530;DHT22;15737;49.760;6.632;2024-01-16T02:30:18;-0.30;99.90
28530;DHT22;15737;49.760;6.632;2024-01-16T02:32:43;-0.30;99.90
28530;DHT22;15737;49.760;6.632;2024-01-16T02:35:09;-0.30;99.90
28530;DHT22;15737;49.760;6.632;2024-01-16T02:37:35;-0.30;99.90
28530;DHT22;15737;49.760;6.632;2024-01-16T02:40:00;-0.30;99.90
28530;DHT22;15737;49.760;6.632;2024-01-16T02:42:32;-0.30;99.90
28530;DHT22;15737;49.760;6.632;2024-01-16T02:44:57;-0.30;99.90
28530;DHT22;15737;49.760;6.632;2024-01-16T02:47:23;-0.30;99.90
28530;DHT22;15737;49.760;6.632;2024-01-16T02:49:48;-0.30;99.90
28530;DHT22;15737;49.760;6.632;2024-01-16T02:52:14;-0.30;99.90
28530;DHT22;15737;49.760;6.632;2024-01-16T02:54:40;-0.30;99.90
28530;DHT22;15737;49.760;6.632;2024-01-16T02:57:05;-0.30;99.90
28530;DHT22;15737;49.760;6.632;2024-01-16T02:59:31;-0.40;99.90
28530;DHT22;15737;49.760;6.632;2024-01-16T03:01:56;-0.40;99.90
28530;DHT22;15737;49.760;6.632;2024-01-16T03:04:22;-0.40;99.90
28530;DHT22;15737;49.760;6.632;2024-01-16T03:06:48;-0.40;99.90
28530;DHT22;15737;49.760;6.632;2024-01-16T03:09:13;-0.40;99.90
28530;DHT22;15737;49.760;6.632;2024-01-16T03:11:39;-0.40;99.90
28530;DHT22;15737;49.760;6.632;2024-01-16T03:14:05;-0.50;99.90
28530;DHT22;15737;49.760;6.632;2024-01-16T03:16:31;-0.50;99.90
28530;DHT22;15737;49.760;6.632;2024-01-16T03:18:57;-0.50;99.90
28530;DHT22;15737;49.760;6.632;2024-01-16T03:21:22;-0.60;99.90
28530;DHT22;15737;49.760;6.632;2024-01-16T03:23:48;-0.60;99.90
28530;DHT22;15737;49.760;6.632;2024-01-16T03:26:14;-0.50;99.90
28530;DHT22;15737;49.760;6.632;2024-01-16T03:28:40;-0.50;99.90
28530;DHT22;15737;49.760;6.632;2024-01-16T03:31:06;-0.60;99.90
28530;DHT22;15737;49.760;6.632;2024-01-16T03:33:32;-0.60;99.90
28530;DHT22;15737;49.760;6.632;2024-01-16T03:36:00;-0.60;99.90
28530;DHT22;15737;49.760;6.632;2024-01-16T03:38:26;-0.70;99.90
28530;DHT22;15737;49.760;6.632;2024-01-16T03:40:51;-0.70;99.90
28530;DHT22;15737;49.760;6.632;2024-01-16T03:43:17;-0.80;99.90
28530;DHT22;15737;49.760;6.632;2024-01-16T03:45:43;-0.80;99.90
28530;DHT22;15737;49.760;6.632;2024-01-16T03:48:09;-0.90;99.90
28530;DHT22;15737;49.760;6.632;2024-01-16T03:50:34;-1.00;99.90
28530;DHT22;15737;49.760;6.632;2024-01-16T03:53:02;-1.10;99.90
28530;DHT22;15737;49.760;6.632;2024-01-16T03:55:29;-1.10;99.90
28530;DHT22;15737;49.760;6.632;2024-01-16T03:57:55;-1.20;99.90
28530;DHT22;15737;49.760;6.632;2024-01-16T04:00:21;-1.20;99.90
28530;DHT22;15737;49.760;6.632;2024-01-16T04:02:49;-1.30;99.90
28530;DHT22;15737;49.760;6.632;2024-01-16T04:05:15;-1.40;99.90
28530;DHT22;15737;49.760;6.632;2024-01-16T04:07:40;-1.40;99.90
28530;DHT22;15737;49.760;6.632;2024-01-16T04:10:06;-1.40;99.90
28530;DHT22;15737;49.760;6.632;2024-01-16T04:12:32;-1.50;99.90
28530;DHT22;15737;49.760;6.632;2024-01-16T04:14:57;-1.50;99.90
28530;DHT22;15737;49.760;6.632;2024-01-16T04:17:26;-1.30;99.90
28530;DHT22;15737;49.760;6.632;2024-01-16T04:19:51;-1.30;99.90
28530;DHT22;15737;49.760;6.632;2024-01-16T04:22:17;-1.40;99.90
28530;DHT22;15737;49.760;6.632;2024-01-16T04:24:42;-1.50;99.90
28530;DHT22;15737;49.760;6.632;2024-01-16T04:27:08;-1.40;99.90
28530;DHT22;15737;49.760;6.632;2024-01-16T04:29:36;-1.30;99.90
28530;DHT22;15737;49.760;6.632;2024-01-16T04:32:02;-1.40;99.90
28530;DHT22;15737;49.760;6.632;2024-01-16T04:34:29;-1.30;99.90
28530;DHT22;15737;49.760;6.632;2024-01-16T04:36:55;-1.30;99.90
28530;DHT22;15737;49.760;6.632;2024-01-16T04:39:21;-1.40;99.90
28530;DHT22;15737;49.760;6.632;2024-01-16T04:41:49;-1.40;99.90
28530;DHT22;15737;49.760;6.632;2024-01-16T04:44:14;-1.30;99.90
28530;DHT22;15737;49.760;6.632;2024-01-16T04:46:40;-1.40;99.90
28530;DHT22;15737;49.760;6.632;2024-01-16T04:49:05;-1.30;99.90
28530;DHT22;15737;49.760;6.632;2024-01-16T04:51:31;-1.40;99.90
28530;DHT22;15737;49.760;6.632;2024-01-16T04:53:56;-1.50;99.90
28530;DHT22;15737;49.760;6.632;2024-01-16T04:56:22;-1.60;99.90
28530;DHT22;15737;49.760;6.632;2024-01-16T04:58:47;-1.70;99.90
28530;DHT22;15737;49.760;6.632;2024-01-16T05:01:13;-1.80;99.90
28530;DHT22;15737;49.760;6.632;2024-01-16T05:03:39;-1.80;99.90
28530;DHT22;15737;49.760;6.632;2024-01-16T05:06:04;-1.90;99.90
28530;DHT22;15737;49.760;6.632;2024-01-16T05:08:30;-1.90;99.90
28530;DHT22;15737;49.760;6.632;2024-01-16T05:10:56;-1.90;99.90
28530;DHT22;15737;49.760;6.632;2024-01-16T05:13:22;-1.90;99.90
28530;DHT22;15737;49.760;6.632;2024-01-16T05:15:48;-1.90;99.90
28530;DHT22;15737;49.760;6.632;2024-01-16T05:18:14;-1.90;99.90
28530;DHT22;15737;49.760;6.632;2024-01-16T05:20:40;-2.00;99.90
28530;DHT22;15737;49.760;6.632;2024-01-16T05:23:05;-2.00;99.90
28530;DHT22;15737;49.760;6.632;2024-01-16T05:25:31;-2.00;99.90
28530;DHT22;15737;49.760;6.632;2024-01-16T05:27:57;-2.10;99.90
28530;DHT22;15737;49.760;6.632;2024-01-16T05:30:22;-2.10;99.90
28530;DHT22;15737;49.760;6.632;2024-01-16T05:32:48;-2.10;99.90
28530;DHT22;15737;49.760;6.632;2024-01-16T05:35:13;-2.10;99.90
28530;DHT22;15737;49.760;6.632;2024-01-16T05:37:39;-2.10;99.90
28530;DHT22;15737;49.760;6.632;2024-01-16T05:40:05;-1.90;99.90
28530;DHT22;15737;49.760;6.632;2024-01-16T05:42:32;-2.10;99.90
28530;DHT22;15737;49.760;6.632;2024-01-16T05:44:58;-2.20;99.90
28530;DHT22;15737;49.760;6.632;2024-01-16T05:47:23;-2.30;99.90
28530;DHT22;15737;49.760;6.632;2024-01-16T05:49:53;-2.30;99.90
28530;DHT22;15737;49.760;6.632;2024-01-16T05:52:23;-2.40;99.90
28530;DHT22;15737;49.760;6.632;2024-01-16T05:54:52;-2.40;99.90
28530;DHT22;15737;49.760;6.632;2024-01-16T05:57:31;-2.50;99.90
28530;DHT22;15737;49.760;6.632;2024-01-16T06:00:03;-2.40;99.90
28530;DHT22;15737;49.760;6.632;2024-01-16T06:02:33;-2.40;99.90
28530;DHT22;15737;49.760;6.632;2024-01-16T06:07:40;-2.40;99.90
28530;DHT22;15737;49.760;6.632;2024-01-16T06:10:15;-2.40;99.90
28530;DHT22;15737;49.760;6.632;2024-01-16T06:12:44;-2.30;99.90
28530;DHT22;15737;49.760;6.632;2024-01-16T06:15:09;-2.20;99.90
28530;DHT22;15737;49.760;6.632;2024-01-16T06:17:36;-2.00;99.90
28530;DHT22;15737;49.760;6.632;2024-01-16T06:20:02;-1.90;99.90
28530;DHT22;15737;49.760;6.632;2024-01-16T06:22:28;-2.00;99.90
28530;DHT22;15737;49.760;6.632;2024-01-16T06:24:53;-2.10;99.90
28530;DHT22;15737;49.760;6.632;2024-01-16T06:27:19;-2.20;99.90
28530;DHT22;15737;49.760;6.632;2024-01-16T06:29:45;-2.30;99.90
28530;DHT22;15737;49.760;6.632;2024-01-16T06:32:11;-2.30;99.90
28530;DHT22;15737;49.760;6.632;2024-01-16T06:34:36;-2.30;99.90
28530;DHT22;15737;49.760;6.632;2024-01-16T06:37:03;-2.30;99.90
28530;DHT22;15737;49.760;6.632;2024-01-16T06:39:28;-2.30;99.90
28530;DHT22;15737;49.760;6.632;2024-01-16T06:41:54;-2.30;99.90
28530;DHT22;15737;49.760;6.632;2024-01-16T06:44:19;-2.20;99.90
28530;DHT22;15737;49.760;6.632;2024-01-16T06:46:45;-1.90;99.90
28530;DHT22;15737;49.760;6.632;2024-01-16T06:49:10;-1.70;99.90
28530;DHT22;15737;49.760;6.632;2024-01-16T06:51:36;-1.60;99.90
28530;DHT22;15737;49.760;6.632;2024-01-16T06:54:01;-1.70;99.90
28530;DHT22;15737;49.760;6.632;2024-01-16T06:56:27;-1.70;99.90
28530;DHT22;15737;49.760;6.632;2024-01-16T06:58:52;-1.80;99.90
28530;DHT22;15737;49.760;6.632;2024-01-16T07:01:18;-1.90;99.90
28530;DHT22;15737;49.760;6.632;2024-01-16T07:03:44;-2.00;99.90
28530;DHT22;15737;49.760;6.632;2024-01-16T07:06:13;-2.10;99.90
28530;DHT22;15737;49.760;6.632;2024-01-16T07:08:38;-2.20;99.90
28530;DHT22;15737;49.760;6.632;2024-01-16T07:11:11;-2.10;99.90
28530;DHT22;15737;49.760;6.632;2024-01-16T07:13:39;-2.10;99.90
28530;DHT22;15737;49.760;6.632;2024-01-16T07:16:06;-2.00;99.90
28530;DHT22;15737;49.760;6.632;2024-01-16T07:18:32;-2.00;99.90
28530;DHT22;15737;49.760;6.632;2024-01-16T07:20:58;-2.00;99.90
28530;DHT22;15737;49.760;6.632;2024-01-16T07:23:24;-2.00;99.90
28530;DHT22;15737;49.760;6.632;2024-01-16T07:25:49;-2.00;99.90
28530;DHT22;15737;49.760;6.632;2024-01-16T07:28:15;-2.10;99.90
28530;DHT22;15737;49.760;6.632;2024-01-16T07:30:42;-2.10;99.90
28530;DHT22;15737;49.760;6.632;2024-01-16T07:33:27;-2.00;99.90
28530;DHT22;15737;49.760;6.632;2024-01-16T07:35:53;-2.10;99.90
28530;DHT22;15737;49.760;6.632;2024-01-16T07:38:18;-2.10;99.90
28530;DHT22;15737;49.760;6.632;2024-01-16T07:40:44;-2.10;99.90
28530;DHT22;15737;49.760;6.632;2024-01-16T07:43:09;-2.10;99.90
28530;DHT22;15737;49.760;6.632;2024-01-16T07:45:35;-2.00;99.90
28530;DHT22;15737;49.760;6.632;2024-01-16T07:48:00;-2.00;99.90
28530;DHT22;15737;49.760;6.632;2024-01-16T07:50:26;-2.00;99.90
28530;DHT22;15737;49.760;6.632;2024-01-16T07:52:51;-2.00;99.90
28530;DHT22;15737;49.760;6.632;2024-01-16T07:55:17;-1.80;99.90
28530;DHT22;15737;49.760;6.632;2024-01-16T07:57:43;-1.60;99.90
28530;DHT22;15737;49.760;6.632;2024-01-16T08:00:10;-1.50;99.90
28530;DHT22;15737;49.760;6.632;2024-01-16T08:02:38;-1.30;99.90
28530;DHT22;15737;49.760;6.632;2024-01-16T08:05:04;-1.00;99.90
28530;DHT22;15737;49.760;6.632;2024-01-16T08:07:30;-0.80;99.90
28530;DHT22;15737;49.760;6.632;2024-01-16T08:09:55;-0.40;99.90
28530;DHT22;15737;49.760;6.632;2024-01-16T08:12:21;-0.10;99.90
28530;DHT22;15737;49.760;6.632;2024-01-16T08:14:47;0.20;99.90
28530;DHT22;15737;49.760;6.632;2024-01-16T08:17:12;0.50;99.90
28530;DHT22;15737;49.760;6.632;2024-01-16T08:19:38;0.70;99.90
28530;DHT22;15737;49.760;6.632;2024-01-16T08:22:03;0.90;99.90
28530;DHT22;15737;49.760;6.632;2024-01-16T08:24:31;1.00;99.90
28530;DHT22;15737;49.760;6.632;2024-01-16T08:26:56;1.30;99.90
28530;DHT22;15737;49.760;6.632;2024-01-16T08:29:26;1.60;99.90
28530;DHT22;15737;49.760;6.632;2024-01-16T08:31:51;1.70;99.90
28530;DHT22;15737;49.760;6.632;2024-01-16T08:34:18;2.10;99.90
28530;DHT22;15737;49.760;6.632;2024-01-16T08:36:46;2.50;99.90
28530;DHT22;15737;49.760;6.632;2024-01-16T08:39:12;3.40;99.90
28530;DHT22;15737;49.760;6.632;2024-01-16T08:41:37;3.90;99.90
28530;DHT22;15737;49.760;6.632;2024-01-16T08:44:03;4.00;99.90
28530;DHT22;15737;49.760;6.632;2024-01-16T08:46:29;3.70;99.90
28530;DHT22;15737;49.760;6.632;2024-01-16T08:48:55;3.60;99.90
28530;DHT22;15737;49.760;6.632;2024-01-16T08:51:20;3.40;99.90
28530;DHT22;15737;49.760;6.632;2024-01-16T08:53:46;3.50;99.90
28530;DHT22;15737;49.760;6.632;2024-01-16T08:56:11;3.40;99.90
28530;DHT22;15737;49.760;6.632;2024-01-16T08:58:39;2.90;99.90
28530;DHT22;15737;49.760;6.632;2024-01-16T09:01:05;2.80;99.90
28530;DHT22;15737;49.760;6.632;2024-01-16T09:03:35;2.80;99.90
28530;DHT22;15737;49.760;6.632;2024-01-16T09:06:01;2.90;99.90
28530;DHT22;15737;49.760;6.632;2024-01-16T09:08:28;3.10;99.90
28530;DHT22;15737;49.760;6.632;2024-01-16T09:10:54;3.50;99.90
28530;DHT22;15737;49.760;6.632;2024-01-16T09:13:20;4.30;99.90
28530;DHT22;15737;49.760;6.632;2024-01-16T09:15:47;4.40;99.90
28530;DHT22;15737;49.760;6.632;2024-01-16T09:18:13;3.70;99.90
28530;DHT22;15737;49.760;6.632;2024-01-16T09:20:38;3.10;99.90
28530;DHT22;15737;49.760;6.632;2024-01-16T09:23:04;2.70;99.90
28530;DHT22;15737;49.760;6.632;2024-01-16T09:25:30;2.40;99.90
28530;DHT22;15737;49.760;6.632;2024-01-16T09:27:55;1.90;99.90
28530;DHT22;15737;49.760;6.632;2024-01-16T09:30:21;1.60;99.90
28530;DHT22;15737;49.760;6.632;2024-01-16T09:32:48;1.60;99.90
28530;DHT22;15737;49.760;6.632;2024-01-16T09:35:14;1.70;99.90
28530;DHT22;15737;49.760;6.632;2024-01-16T09:37:40;2.30;99.90
28530;DHT22;15737;49.760;6.632;2024-01-16T09:40:06;3.10;99.90
28530;DHT22;15737;49.760;6.632;2024-01-16T09:42:32;4.20;99.90
28530;DHT22;15737;49.760;6.632;2024-01-16T09:45:00;5.10;99.90
28530;DHT22;15737;49.760;6.632;2024-01-16T09:47:29;6.20;99.90
28530;DHT22;15737;49.760;6.632;2024-01-16T09:49:57;5.90;99.90
28530;DHT22;15737;49.760;6.632;2024-01-16T09:52:24;4.20;99.90
28530;DHT22;15737;49.760;6.632;2024-01-16T09:54:50;2.90;99.90
28530;DHT22;15737;49.760;6.632;2024-01-16T09:57:19;2.00;99.90
28530;DHT22;15737;49.760;6.632;2024-01-16T09:59:48;1.50;99.90
28530;DHT22;15737;49.760;6.632;2024-01-16T10:02:14;1.20;99.90
28530;DHT22;15737;49.760;6.632;2024-01-16T10:04:41;0.90;99.90
28530;DHT22;15737;49.760;6.632;2024-01-16T10:07:08;1.00;99.90
28530;DHT22;15737;49.760;6.632;2024-01-16T10:09:35;1.30;99.90
28530;DHT22;15737;49.760;6.632;2024-01-16T10:12:00;1.50;99.90
28530;DHT22;15737;49.760;6.632;2024-01-16T10:14:26;1.70;99.90
28530;DHT22;15737;49.760;6.632;2024-01-16T10:16:56;1.90;99.90
28530;DHT22;15737;49.760;6.632;2024-01-16T10:19:27;1.90;99.90
28530;DHT22;15737;49.760;6.632;2024-01-16T10:22:04;1.90;99.90
28530;DHT22;15737;49.760;6.632;2024-01-16T10:24:30;1.80;99.90
28530;DHT22;15737;49.760;6.632;2024-01-16T10:27:00;1.80;99.90
28530;DHT22;15737;49.760;6.632;2024-01-16T10:29:26;2.10;99.90
28530;DHT22;15737;49.760;6.632;2024-01-16T10:31:55;2.30;99.90
28530;DHT22;15737;49.760;6.632;2024-01-16T10:34:21;2.90;99.90
28530;DHT22;15737;49.760;6.632;2024-01-16T10:36:49;4.10;99.90
28530;DHT22;15737;49.760;6.632;2024-01-16T10:39:16;5.10;99.90
28530;DHT22;15737;49.760;6.632;2024-01-16T10:41:41;5.30;99.90
28530;DHT22;15737;49.760;6.632;2024-01-16T10:44:07;5.10;99.90
28530;DHT22;15737;49.760;6.632;2024-01-16T10:46:34;4.70;99.90
28530;DHT22;15737;49.760;6.632;2024-01-16T10:49:01;4.30;99.90
28530;DHT22;15737;49.760;6.632;2024-01-16T10:51:28;5.00;99.90
28530;DHT22;15737;49.760;6.632;2024-01-16T10:54:01;6.50;99.90
28530;DHT22;15737;49.760;6.632;2024-01-16T10:56:28;7.10;99.90
28530;DHT22;15737;49.760;6.632;2024-01-16T10:59:11;7.60;99.90
28530;DHT22;15737;49.760;6.632;2024-01-16T11:01:38;7.60;99.90
28530;DHT22;15737;49.760;6.632;2024-01-16T11:04:05;8.50;99.90
28530;DHT22;15737;49.760;6.632;2024-01-16T11:06:32;9.10;99.90
28530;DHT22;15737;49.760;6.632;2024-01-16T11:08:57;9.50;99.90
28530;DHT22;15737;49.760;6.632;2024-01-16T11:11:26;9.60;99.90
28530;DHT22;15737;49.760;6.632;2024-01-16T11:13:54;8.80;99.90
28530;DHT22;15737;49.760;6.632;2024-01-16T11:16:21;8.60;99.90
28530;DHT22;15737;49.760;6.632;2024-01-16T11:18:48;8.40;99.90
28530;DHT22;15737;49.760;6.632;2024-01-16T11:21:14;8.40;99.90
28530;DHT22;15737;49.760;6.632;2024-01-16T11:23:40;8.10;99.80
28530;DHT22;15737;49.760;6.632;2024-01-16T11:26:34;7.90;99.90
28530;DHT22;15737;49.760;6.632;2024-01-16T11:31:53;8.90;99.90
28530;DHT22;15737;49.760;6.632;2024-01-16T11:37:08;7.80;98.50
28530;DHT22;15737;49.760;6.632;2024-01-16T11:39:34;7.20;99.30
28530;DHT22;15737;49.760;6.632;2024-01-16T11:42:00;7.10;99.60
28530;DHT22;15737;49.760;6.632;2024-01-16T11:44:46;7.50;99.90
28530;DHT22;15737;49.760;6.632;2024-01-16T11:47:25;7.70;99.20
28530;DHT22;15737;49.760;6.632;2024-01-16T11:52:43;6.50;99.40
28530;DHT22;15737;49.760;6.632;2024-01-16T12:00:41;5.40;99.90
28530;DHT22;15737;49.760;6.632;2024-01-16T12:03:08;6.00;99.90
28530;DHT22;15737;49.760;6.632;2024-01-16T12:05:34;6.40;99.90
28530;DHT22;15737;49.760;6.632;2024-01-16T12:07:59;6.90;99.90
28530;DHT22;15737;49.760;6.632;2024-01-16T12:10:28;7.80;99.90
28530;DHT22;15737;49.760;6.632;2024-01-16T12:12:58;8.20;98.10
28530;DHT22;15737;49.760;6.632;2024-01-16T12:15:23;7.40;98.80
28530;DHT22;15737;49.760;6.632;2024-01-16T12:18:00;7.20;98.50
28530;DHT22;15737;49.760;6.632;2024-01-16T12:20:27;6.80;98.60
28530;DHT22;15737;49.760;6.632;2024-01-16T12:23:00;6.90;98.80
28530;DHT22;15737;49.760;6.632;2024-01-16T12:25:27;6.80;98.70
28530;DHT22;15737;49.760;6.632;2024-01-16T12:30:24;7.30;97.70
28530;DHT22;15737;49.760;6.632;2024-01-16T12:32:51;6.70;97.80
28530;DHT22;15737;49.760;6.632;2024-01-16T12:35:21;6.20;99.10
28530;DHT22;15737;49.760;6.632;2024-01-16T12:38:07;6.20;99.00
28530;DHT22;15737;49.760;6.632;2024-01-16T12:40:40;5.90;98.80
28530;DHT22;15737;49.760;6.632;2024-01-16T12:43:08;5.20;99.50
28530;DHT22;15737;49.760;6.632;2024-01-16T12:45:34;4.20;99.90
28530;DHT22;15737;49.760;6.632;2024-01-16T12:48:01;3.60;99.90
28530;DHT22;15737;49.760;6.632;2024-01-16T12:50:29;3.40;99.90
28530;DHT22;15737;49.760;6.632;2024-01-16T12:53:09;3.20;99.90
28530;DHT22;15737;49.760;6.632;2024-01-16T12:55:36;2.90;99.90
28530;DHT22;15737;49.760;6.632;2024-01-16T12:58:15;2.70;99.90
28530;DHT22;15737;49.760;6.632;2024-01-16T13:00:48;2.80;99.90
28530;DHT22;15737;49.760;6.632;2024-01-16T13:03:16;3.00;99.90
28530;DHT22;15737;49.760;6.632;2024-01-16T13:05:43;3.30;99.90
28530;DHT22;15737;49.760;6.632;2024-01-16T13:08:09;3.50;99.90
28530;DHT22;15737;49.760;6.632;2024-01-16T13:10:34;3.70;99.90
28530;DHT22;15737;49.760;6.632;2024-01-16T13:13:14;3.70;99.90
28530;DHT22;15737;49.760;6.632;2024-01-16T13:15:40;3.80;99.90
28530;DHT22;15737;49.760;6.632;2024-01-16T13:18:16;3.80;99.90
28530;DHT22;15737;49.760;6.632;2024-01-16T13:20:42;3.40;99.90
28530;DHT22;15737;49.760;6.632;2024-01-16T13:23:07;3.30;99.90
28530;DHT22;15737;49.760;6.632;2024-01-16T13:25:34;4.00;99.90
28530;DHT22;15737;49.760;6.632;2024-01-16T13:28:00;5.20;99.90
28530;DHT22;15737;49.760;6.632;2024-01-16T13:30:25;6.80;99.90
28530;DHT22;15737;49.760;6.632;2024-01-16T13:32:51;7.40;99.20
28530;DHT22;15737;49.760;6.632;2024-01-16T13:35:16;6.90;97.70
28530;DHT22;15737;49.760;6.632;2024-01-16T13:37:42;5.70;98.50
28530;DHT22;15737;49.760;6.632;2024-01-16T13:40:08;5.20;99.80
28530;DHT22;15737;49.760;6.632;2024-01-16T13:42:40;4.80;99.80
28530;DHT22;15737;49.760;6.632;2024-01-16T13:45:07;4.30;99.70
28530;DHT22;15737;49.760;6.632;2024-01-16T13:50:04;3.70;99.90
28530;DHT22;15737;49.760;6.632;2024-01-16T13:52:30;3.80;99.90
28530;DHT22;15737;49.760;6.632;2024-01-16T13:54:56;3.70;99.90
28530;DHT22;15737;49.760;6.632;2024-01-16T13:57:23;4.40;99.90
28530;DHT22;15737;49.760;6.632;2024-01-16T13:59:48;5.20;99.80
28530;DHT22;15737;49.760;6.632;2024-01-16T14:02:14;4.80;98.40
28530;DHT22;15737;49.760;6.632;2024-01-16T14:04:40;4.20;99.10
28530;DHT22;15737;49.760;6.632;2024-01-16T14:07:05;3.60;99.50
28530;DHT22;15737;49.760;6.632;2024-01-16T14:09:35;3.40;99.90
28530;DHT22;15737;49.760;6.632;2024-01-16T14:12:01;3.70;99.90
28530;DHT22;15737;49.760;6.632;2024-01-16T14:14:35;4.50;99.90
28530;DHT22;15737;49.760;6.632;2024-01-16T14:17:01;5.80;99.90
28530;DHT22;15737;49.760;6.632;2024-01-16T14:19:28;6.80;99.90
28530;DHT22;15737;49.760;6.632;2024-01-16T14:21:55;7.80;99.90
28530;DHT22;15737;49.760;6.632;2024-01-16T14:24:21;8.40;98.40
28530;DHT22;15737;49.760;6.632;2024-01-16T14:26:46;8.70;98.20
28530;DHT22;15737;49.760;6.632;2024-01-16T14:29:12;8.80;95.80
28530;DHT22;15737;49.760;6.632;2024-01-16T14:31:38;8.70;96.30
28530;DHT22;15737;49.760;6.632;2024-01-16T14:34:10;8.20;94.70
28530;DHT22;15737;49.760;6.632;2024-01-16T14:36:36;7.60;94.60
28530;DHT22;15737;49.760;6.632;2024-01-16T14:39:01;7.10;94.90
28530;DHT22;15737;49.760;6.632;2024-01-16T14:41:27;6.80;95.00
28530;DHT22;15737;49.760;6.632;2024-01-16T14:43:52;6.70;95.30
28530;DHT22;15737;49.760;6.632;2024-01-16T14:46:18;7.10;96.20
28530;DHT22;15737;49.760;6.632;2024-01-16T14:48:44;7.70;95.80
28530;DHT22;15737;49.760;6.632;2024-01-16T14:51:11;8.00;94.70
28530;DHT22;15737;49.760;6.632;2024-01-16T14:53:36;7.80;95.00
28530;DHT22;15737;49.760;6.632;2024-01-16T14:56:02;7.60;94.40
28530;DHT22;15737;49.760;6.632;2024-01-16T14:58:28;7.20;94.30
28530;DHT22;15737;49.760;6.632;2024-01-16T15:00:54;6.30;94.40
28530;DHT22;15737;49.760;6.632;2024-01-16T15:03:21;5.60;95.00
28530;DHT22;15737;49.760;6.632;2024-01-16T15:05:48;4.80;95.70
28530;DHT22;15737;49.760;6.632;2024-01-16T15:08:19;4.10;96.40
28530;DHT22;15737;49.760;6.632;2024-01-16T15:10:45;4.00;97.50
28530;DHT22;15737;49.760;6.632;2024-01-16T15:13:10;4.00;97.20
28530;DHT22;15737;49.760;6.632;2024-01-16T15:15:37;3.70;97.20
28530;DHT22;15737;49.760;6.632;2024-01-16T15:18:03;3.20;97.60
28530;DHT22;15737;49.760;6.632;2024-01-16T15:20:28;2.70;98.20
28530;DHT22;15737;49.760;6.632;2024-01-16T15:22:54;2.30;99.00
28530;DHT22;15737;49.760;6.632;2024-01-16T15:25:20;1.90;99.40
28530;DHT22;15737;49.760;6.632;2024-01-16T15:27:51;1.80;99.70
28530;DHT22;15737;49.760;6.632;2024-01-16T15:30:22;1.70;99.90
28530;DHT22;15737;49.760;6.632;2024-01-16T15:32:50;1.50;99.90
28530;DHT22;15737;49.760;6.632;2024-01-16T15:35:16;1.30;99.90
28530;DHT22;15737;49.760;6.632;2024-01-16T15:37:41;1.10;99.90
28530;DHT22;15737;49.760;6.632;2024-01-16T15:40:10;1.00;99.90
28530;DHT22;15737;49.760;6.632;2024-01-16T15:42:37;0.80;99.90
28530;DHT22;15737;49.760;6.632;2024-01-16T15:45:05;0.70;99.90
28530;DHT22;15737;49.760;6.632;2024-01-16T15:47:32;0.50;99.90
28530;DHT22;15737;49.760;6.632;2024-01-16T15:49:59;0.50;99.90
28530;DHT22;15737;49.760;6.632;2024-01-16T15:52:40;0.30;99.90
28530;DHT22;15737;49.760;6.632;2024-01-16T15:55:05;0.20;99.90
28530;DHT22;15737;49.760;6.632;2024-01-16T15:57:31;0.00;99.90